sensor_id;sensor_type;location;lat;lon;timestamp;P1;durP1;ratioP1;P2;durP2;ratioP2
45011;SDS011;63444;48.148;11.542;2023-12-14T00:02:34;2.80;;;1.00;;
45011;SDS011;63444;48.148;11.542;2023-12-14T00:05:25;0.93;;;0.93;;
45011;SDS011;63444;48.148;11.542;2023-12-14T00:08:25;1.33;;;1.00;;
45011;SDS011;63444;48.148;11.542;2023-12-14T00:11:53;1.10;;;1.07;;
45011;SDS011;63444;48.148;11.542;2023-12-14T00:14:32;1.60;;;1.00;;
45011;SDS011;63444;48.148;11.542;2023-12-14T00:20:37;1.03;;;1.00;;
45011;SDS011;63444;48.148;11.542;2023-12-14T00:23:06;1.13;;;1.03;;
45011;SDS011;63444;48.148;11.542;2023-12-14T00:26:24;1.27;;;1.17;;
45011;SDS011;63444;48.148;11.542;2023-12-14T00:29:05;0.97;;;0.97;;
45011;SDS011;63444;48.148;11.542;2023-12-14T00:31:39;1.10;;;1.10;;
45011;SDS011;63444;48.148;11.542;2023-12-14T00:34:17;1.30;;;1.20;;
45011;SDS011;63444;48.148;11.542;2023-12-14T00:37:16;1.57;;;1.10;;
45011;SDS011;63444;48.148;11.542;2023-12-14T00:39:50;1.13;;;1.03;;
45011;SDS011;63444;48.148;11.542;2023-12-14T00:45:53;1.13;;;1.10;;
45011;SDS011;63444;48.148;11.542;2023-12-14T00:48:35;1.30;;;1.20;;
45011;SDS011;63444;48.148;11.542;2023-12-14T00:51:09;1.20;;;1.10;;
45011;SDS011;63444;48.148;11.542;2023-12-14T00:53:38;1.10;;;1.10;;
45011;SDS011;63444;48.148;11.542;2023-12-14T00:56:24;1.00;;;1.00;;
45011;SDS011;63444;48.148;11.542;2023-12-14T00:59:03;1.30;;;1.17;;
45011;SDS011;63444;48.148;11.542;2023-12-14T01:01:36;1.10;;;1.10;;
45011;SDS011;63444;48.148;11.542;2023-12-14T01:04:15;1.40;;;1.30;;
45011;SDS011;63444;48.148;11.542;2023-12-14T01:07:01;1.10;;;1.10;;
45011;SDS011;63444;48.148;11.542;2023-12-14T01:09:56;1.10;;;1.00;;
45011;SDS011;63444;48.148;11.542;2023-12-14T01:12:22;1.30;;;1.20;;
45011;SDS011;63444;48.148;11.542;2023-12-14T01:14:53;1.13;;;1.10;;
45011;SDS011;63444;48.148;11.542;2023-12-14T01:17:31;1.23;;;1.20;;
45011;SDS011;63444;48.148;11.542;2023-12-14T01:20:09;1.17;;;1.10;;
45011;SDS011;63444;48.148;11.542;2023-12-14T01:22:57;1.30;;;1.20;;
45011;SDS011;63444;48.148;11.542;2023-12-14T01:31:26;0.90;;;0.90;;
45011;SDS011;63444;48.148;11.542;2023-12-14T01:33:54;1.20;;;1.10;;
45011;SDS011;63444;48.148;11.542;2023-12-14T01:36:37;0.80;;;0.80;;
45011;SDS011;63444;48.148;11.542;2023-12-14T01:39:35;1.47;;;1.00;;
45011;SDS011;63444;48.148;11.542;2023-12-14T01:42:01;0.90;;;0.90;;
45011;SDS011;63444;48.148;11.542;2023-12-14T01:44:33;1.00;;;1.00;;
45011;SDS011;63444;48.148;11.542;2023-12-14T01:47:42;0.80;;;0.80;;
45011;SDS011;63444;48.148;11.542;2023-12-14T01:50:33;1.20;;;1.10;;
45011;SDS011;63444;48.148;11.542;2023-12-14T01:52:59;0.90;;;0.90;;
45011;SDS011;63444;48.148;11.542;2023-12-14T01:59:15;0.97;;;0.97;;
45011;SDS011;63444;48.148;11.542;2023-12-14T02:02:01;2.47;;;1.20;;
45011;SDS011;63444;48.148;11.542;2023-12-14T02:08:00;0.80;;;0.80;;
45011;SDS011;63444;48.148;11.542;2023-12-14T02:10:29;0.90;;;0.90;;
45011;SDS011;63444;48.148;11.542;2023-12-14T02:13:25;1.47;;;1.03;;
45011;SDS011;63444;48.148;11.542;2023-12-14T02:16:16;1.03;;;0.97;;
45011;SDS011;63444;48.148;11.542;2023-12-14T02:19:05;0.70;;;0.70;;
45011;SDS011;63444;48.148;11.542;2023-12-14T02:21:50;0.90;;;0.90;;
45011;SDS011;63444;48.148;11.542;2023-12-14T02:24:50;0.97;;;0.97;;
45011;SDS011;63444;48.148;11.542;2023-12-14T02:31:05;1.00;;;1.00;;
45011;SDS011;63444;48.148;11.542;2023-12-14T02:33:36;1.10;;;1.00;;
45011;SDS011;63444;48.148;11.542;2023-12-14T02:36:16;0.97;;;0.97;;
45011;SDS011;63444;48.148;11.542;2023-12-14T02:39:15;2.03;;;1.30;;
45011;SDS011;63444;48.148;11.542;2023-12-14T02:42:12;1.20;;;1.20;;
45011;SDS011;63444;48.148;11.542;2023-12-14T02:44:49;1.20;;;1.10;;
45011;SDS011;63444;48.148;11.542;2023-12-14T02:47:41;1.30;;;1.30;;
45011;SDS011;63444;48.148;11.542;2023-12-14T02:50:12;1.50;;;1.40;;
45011;SDS011;63444;48.148;11.542;2023-12-14T02:52:51;1.57;;;1.40;;
45011;SDS011;63444;48.148;11.542;2023-12-14T02:55:51;1.50;;;1.40;;
45011;SDS011;63444;48.148;11.542;2023-12-14T02:58:31;1.57;;;1.47;;
45011;SDS011;63444;48.148;11.542;2023-12-14T03:01:47;1.40;;;1.30;;
45011;SDS011;63444;48.148;11.542;2023-12-14T03:04:26;1.70;;;1.60;;
45011;SDS011;63444;48.148;11.542;2023-12-14T03:06:57;1.47;;;1.40;;
45011;SDS011;63444;48.148;11.542;2023-12-14T03:10:00;1.43;;;1.33;;
45011;SDS011;63444;48.148;11.542;2023-12-14T03:12:57;1.50;;;1.37;;
45011;SDS011;63444;48.148;11.542;2023-12-14T03:15:52;1.70;;;1.60;;
45011;SDS011;63444;48.148;11.542;2023-12-14T03:18:55;1.60;;;1.50;;
45011;SDS011;63444;48.148;11.542;2023-12-14T03:21:32;1.73;;;1.53;;
45011;SDS011;63444;48.148;11.542;2023-12-14T03:24:34;1.50;;;1.40;;
45011;SDS011;63444;48.148;11.542;2023-12-14T03:27:17;1.40;;;1.30;;
45011;SDS011;63444;48.148;11.542;2023-12-14T03:39:32;1.73;;;1.63;;
45011;SDS011;63444;48.148;11.542;2023-12-14T03:48:38;1.60;;;1.50;;
45011;SDS011;63444;48.148;11.542;2023-12-14T03:51:50;1.83;;;1.67;;
45011;SDS011;63444;48.148;11.542;2023-12-14T03:54:48;1.50;;;1.40;;
45011;SDS011;63444;48.148;11.542;2023-12-14T04:00:40;1.97;;;1.87;;
45011;SDS011;63444;48.148;11.542;2023-12-14T04:03:51;1.63;;;1.50;;
45011;SDS011;63444;48.148;11.542;2023-12-14T04:06:33;1.50;;;1.40;;
45011;SDS011;63444;48.148;11.542;2023-12-14T04:09:24;1.77;;;1.63;;
45011;SDS011;63444;48.148;11.542;2023-12-14T04:12:21;1.80;;;1.70;;
45011;SDS011;63444;48.148;11.542;2023-12-14T04:15:08;1.83;;;1.73;;
45011;SDS011;63444;48.148;11.542;2023-12-14T04:24:43;1.70;;;1.60;;
45011;SDS011;63444;48.148;11.542;2023-12-14T04:27:38;2.00;;;1.67;;
45011;SDS011;63444;48.148;11.542;2023-12-14T04:30:15;1.60;;;1.50;;
45011;SDS011;63444;48.148;11.542;2023-12-14T04:32:46;1.40;;;1.30;;
45011;SDS011;63444;48.148;11.542;2023-12-14T04:35:19;1.50;;;1.40;;
45011;SDS011;63444;48.148;11.542;2023-12-14T04:47:33;1.63;;;1.53;;
45011;SDS011;63444;48.148;11.542;2023-12-14T05:08:46;1.40;;;1.27;;
45011;SDS011;63444;48.148;11.542;2023-12-14T05:11:28;1.03;;;1.00;;
45011;SDS011;63444;48.148;11.542;2023-12-14T05:14:22;1.50;;;1.40;;
45011;SDS011;63444;48.148;11.542;2023-12-14T05:20:29;3.47;;;1.20;;
45011;SDS011;63444;48.148;11.542;2023-12-14T05:23:45;1.87;;;1.40;;
45011;SDS011;63444;48.148;11.542;2023-12-14T05:26:26;1.43;;;1.30;;
45011;SDS011;63444;48.148;11.542;2023-12-14T05:28:58;1.40;;;1.30;;
45011;SDS011;63444;48.148;11.542;2023-12-14T05:31:34;1.77;;;1.67;;
45011;SDS011;63444;48.148;11.542;2023-12-14T05:34:55;2.00;;;1.40;;
45011;SDS011;63444;48.148;11.542;2023-12-14T05:37:58;1.37;;;1.27;;
45011;SDS011;63444;48.148;11.542;2023-12-14T05:44:12;1.60;;;1.50;;
45011;SDS011;63444;48.148;11.542;2023-12-14T05:50:03;1.30;;;1.30;;
45011;SDS011;63444;48.148;11.542;2023-12-14T05:56:32;1.80;;;1.70;;
45011;SDS011;63444;48.148;11.542;2023-12-14T06:06:19;2.23;;;1.77;;
45011;SDS011;63444;48.148;11.542;2023-12-14T06:08:58;2.50;;;1.73;;
45011;SDS011;63444;48.148;11.542;2023-12-14T06:12:00;2.00;;;1.90;;
45011;SDS011;63444;48.148;11.542;2023-12-14T06:18:22;2.50;;;2.30;;
45011;SDS011;63444;48.148;11.542;2023-12-14T06:41:13;2.73;;;2.30;;
45011;SDS011;63444;48.148;11.542;2023-12-14T06:44:12;2.57;;;2.37;;
45011;SDS011;63444;48.148;11.542;2023-12-14T06:47:04;2.63;;;2.10;;
45011;SDS011;63444;48.148;11.542;2023-12-14T06:49:49;2.97;;;2.37;;
45011;SDS011;63444;48.148;11.542;2023-12-14T06:52:42;2.40;;;2.20;;
45011;SDS011;63444;48.148;11.542;2023-12-14T06:55:56;2.60;;;2.40;;
45011;SDS011;63444;48.148;11.542;2023-12-14T06:59:02;3.13;;;2.30;;
45011;SDS011;63444;48.148;11.542;2023-12-14T07:05:58;2.70;;;2.50;;
45011;SDS011;63444;48.148;11.542;2023-12-14T07:16:03;3.90;;;2.77;;
45011;SDS011;63444;48.148;11.542;2023-12-14T07:36:04;5.10;;;3.57;;
45011;SDS011;63444;48.148;11.542;2023-12-14T07:42:43;6.17;;;4.33;;
45011;SDS011;63444;48.148;11.542;2023-12-14T08:28:41;7.50;;;5.70;;
45011;SDS011;63444;48.148;11.542;2023-12-14T08:35:16;6.10;;;5.50;;
45011;SDS011;63444;48.148;11.542;2023-12-14T09:26:32;4.60;;;4.00;;
45011;SDS011;63444;48.148;11.542;2023-12-14T09:28:58;5.10;;;4.33;;
45011;SDS011;63444;48.148;11.542;2023-12-14T09:31:24;4.87;;;4.20;;
45011;SDS011;63444;48.148;11.542;2023-12-14T09:33:49;5.37;;;4.10;;
45011;SDS011;63444;48.148;11.542;2023-12-14T09:36:15;4.43;;;3.70;;
45011;SDS011;63444;48.148;11.542;2023-12-14T09:38:55;3.90;;;3.10;;
45011;SDS011;63444;48.148;11.542;2023-12-14T09:41:24;3.63;;;3.33;;
45011;SDS011;63444;48.148;11.542;2023-12-14T09:43:49;3.13;;;2.90;;
45011;SDS011;63444;48.148;11.542;2023-12-14T09:46:17;3.30;;;3.00;;
45011;SDS011;63444;48.148;11.542;2023-12-14T09:48:43;3.90;;;3.50;;
45011;SDS011;63444;48.148;11.542;2023-12-14T09:51:10;3.43;;;3.13;;
45011;SDS011;63444;48.148;11.542;2023-12-14T09:53:38;3.90;;;3.60;;
45011;SDS011;63444;48.148;11.542;2023-12-14T09:56:03;3.27;;;3.00;;
45011;SDS011;63444;48.148;11.542;2023-12-14T09:58:33;4.07;;;3.30;;
45011;SDS011;63444;48.148;11.542;2023-12-14T10:00:59;3.60;;;3.30;;
45011;SDS011;63444;48.148;11.542;2023-12-14T10:03:29;3.70;;;3.40;;
45011;SDS011;63444;48.148;11.542;2023-12-14T10:05:57;4.30;;;3.90;;
45011;SDS011;63444;48.148;11.542;2023-12-14T10:08:26;7.60;;;4.00;;
45011;SDS011;63444;48.148;11.542;2023-12-14T10:10:53;4.20;;;3.80;;
45011;SDS011;63444;48.148;11.542;2023-12-14T10:13:21;4.40;;;4.00;;
45011;SDS011;63444;48.148;11.542;2023-12-14T10:16:01;3.60;;;3.30;;
45011;SDS011;63444;48.148;11.542;2023-12-14T10:18:27;3.60;;;3.30;;
45011;SDS011;63444;48.148;11.542;2023-12-14T10:20:53;4.53;;;3.87;;
45011;SDS011;63444;48.148;11.542;2023-12-14T10:23:19;3.40;;;2.90;;
45011;SDS011;63444;48.148;11.542;2023-12-14T10:25:46;5.00;;;2.83;;
45011;SDS011;63444;48.148;11.542;2023-12-14T10:28:12;2.87;;;2.63;;
45011;SDS011;63444;48.148;11.542;2023-12-14T10:30:42;4.10;;;2.70;;
45011;SDS011;63444;48.148;11.542;2023-12-14T10:33:08;4.30;;;2.97;;
45011;SDS011;63444;48.148;11.542;2023-12-14T10:35:35;3.63;;;3.30;;
45011;SDS011;63444;48.148;11.542;2023-12-14T10:38:02;3.97;;;3.10;;
45011;SDS011;63444;48.148;11.542;2023-12-14T10:40:30;3.50;;;3.20;;
45011;SDS011;63444;48.148;11.542;2023-12-14T10:42:58;3.43;;;3.13;;
45011;SDS011;63444;48.148;11.542;2023-12-14T10:45:27;4.03;;;3.10;;
45011;SDS011;63444;48.148;11.542;2023-12-14T10:47:54;4.30;;;3.03;;
45011;SDS011;63444;48.148;11.542;2023-12-14T10:50:23;3.17;;;2.93;;
45011;SDS011;63444;48.148;11.542;2023-12-14T10:52:50;3.40;;;3.10;;
45011;SDS011;63444;48.148;11.542;2023-12-14T10:55:33;2.87;;;2.67;;
45011;SDS011;63444;48.148;11.542;2023-12-14T10:58:04;5.10;;;3.20;;
45011;SDS011;63444;48.148;11.542;2023-12-14T11:00:34;3.10;;;2.90;;
45011;SDS011;63444;48.148;11.542;2023-12-14T11:03:03;3.40;;;3.10;;
45011;SDS011;63444;48.148;11.542;2023-12-14T11:05:32;3.23;;;2.93;;
45011;SDS011;63444;48.148;11.542;2023-12-14T11:08:03;3.33;;;3.03;;
45011;SDS011;63444;48.148;11.542;2023-12-14T11:10:41;3.80;;;3.20;;
45011;SDS011;63444;48.148;11.542;2023-12-14T11:13:12;3.87;;;3.47;;
45011;SDS011;63444;48.148;11.542;2023-12-14T11:15:39;3.87;;;3.17;;
45011;SDS011;63444;48.148;11.542;2023-12-14T11:23:26;4.17;;;3.30;;
45011;SDS011;63444;48.148;11.542;2023-12-14T11:25:52;3.90;;;3.17;;
45011;SDS011;63444;48.148;11.542;2023-12-14T11:28:21;3.20;;;2.90;;
45011;SDS011;63444;48.148;11.542;2023-12-14T11:30:48;2.73;;;2.53;;
45011;SDS011;63444;48.148;11.542;2023-12-14T11:33:14;3.37;;;3.00;;
45011;SDS011;63444;48.148;11.542;2023-12-14T11:35:41;3.53;;;2.90;;
45011;SDS011;63444;48.148;11.542;2023-12-14T11:38:07;3.13;;;2.83;;
45011;SDS011;63444;48.148;11.542;2023-12-14T11:40:44;2.83;;;2.57;;
45011;SDS011;63444;48.148;11.542;2023-12-14T11:43:11;2.53;;;2.33;;
45011;SDS011;63444;48.148;11.542;2023-12-14T11:45:37;3.47;;;2.27;;
45011;SDS011;63444;48.148;11.542;2023-12-14T11:48:07;2.40;;;2.20;;
45011;SDS011;63444;48.148;11.542;2023-12-14T11:50:35;2.33;;;2.10;;
45011;SDS011;63444;48.148;11.542;2023-12-14T11:53:07;2.63;;;2.20;;
45011;SDS011;63444;48.148;11.542;2023-12-14T11:55:34;2.17;;;1.97;;
45011;SDS011;63444;48.148;11.542;2023-12-14T11:58:02;2.37;;;2.17;;
45011;SDS011;63444;48.148;11.542;2023-12-14T12:00:30;1.80;;;1.70;;
45011;SDS011;63444;48.148;11.542;2023-12-14T12:03:15;2.03;;;1.87;;
45011;SDS011;63444;48.148;11.542;2023-12-14T12:05:50;2.60;;;2.20;;
45011;SDS011;63444;48.148;11.542;2023-12-14T12:08:20;2.23;;;1.70;;
45011;SDS011;63444;48.148;11.542;2023-12-14T12:10:47;1.63;;;1.40;;
45011;SDS011;63444;48.148;11.542;2023-12-14T12:13:14;1.73;;;1.63;;
45011;SDS011;63444;48.148;11.542;2023-12-14T12:15:41;1.80;;;1.70;;
45011;SDS011;63444;48.148;11.542;2023-12-14T12:18:17;1.80;;;1.70;;
45011;SDS011;63444;48.148;11.542;2023-12-14T12:20:43;1.93;;;1.80;;
45011;SDS011;63444;48.148;11.542;2023-12-14T12:23:09;2.70;;;1.97;;
45011;SDS011;63444;48.148;11.542;2023-12-14T12:25:34;1.80;;;1.70;;
45011;SDS011;63444;48.148;11.542;2023-12-14T12:28:01;1.60;;;1.50;;
45011;SDS011;63444;48.148;11.542;2023-12-14T12:30:31;1.70;;;1.60;;
45011;SDS011;63444;48.148;11.542;2023-12-14T12:32:57;1.97;;;1.57;;
45011;SDS011;63444;48.148;11.542;2023-12-14T12:35:23;2.67;;;1.90;;
45011;SDS011;63444;48.148;11.542;2023-12-14T12:37:50;1.60;;;1.50;;
45011;SDS011;63444;48.148;11.542;2023-12-14T12:40:22;1.80;;;1.70;;
45011;SDS011;63444;48.148;11.542;2023-12-14T12:42:54;2.10;;;1.80;;
45011;SDS011;63444;48.148;11.542;2023-12-14T12:45:21;3.03;;;1.90;;
45011;SDS011;63444;48.148;11.542;2023-12-14T12:47:49;1.80;;;1.70;;
45011;SDS011;63444;48.148;11.542;2023-12-14T12:50:15;3.10;;;1.70;;
45011;SDS011;63444;48.148;11.542;2023-12-14T12:52:41;3.80;;;1.60;;
45011;SDS011;63444;48.148;11.542;2023-12-14T12:55:07;1.70;;;1.60;;
45011;SDS011;63444;48.148;11.542;2023-12-14T12:57:34;1.93;;;1.63;;
45011;SDS011;63444;48.148;11.542;2023-12-14T13:00:00;1.87;;;1.77;;
45011;SDS011;63444;48.148;11.542;2023-12-14T13:02:29;2.27;;;1.87;;
45011;SDS011;63444;48.148;11.542;2023-12-14T13:04:56;1.70;;;1.60;;
45011;SDS011;63444;48.148;11.542;2023-12-14T13:07:22;2.10;;;1.90;;
45011;SDS011;63444;48.148;11.542;2023-12-14T13:09:48;2.03;;;1.70;;
45011;SDS011;63444;48.148;11.542;2023-12-14T13:12:17;2.27;;;1.70;;
45011;SDS011;63444;48.148;11.542;2023-12-14T13:14:44;1.70;;;1.60;;
45011;SDS011;63444;48.148;11.542;2023-12-14T13:17:10;2.20;;;2.00;;
45011;SDS011;63444;48.148;11.542;2023-12-14T13:19:35;2.70;;;2.03;;
45011;SDS011;63444;48.148;11.542;2023-12-14T13:22:01;1.80;;;1.70;;
45011;SDS011;63444;48.148;11.542;2023-12-14T13:24:27;4.80;;;1.70;;
45011;SDS011;63444;48.148;11.542;2023-12-14T13:26:53;2.23;;;1.90;;
45011;SDS011;63444;48.148;11.542;2023-12-14T13:29:20;2.10;;;1.90;;
45011;SDS011;63444;48.148;11.542;2023-12-14T13:31:45;4.13;;;2.03;;
45011;SDS011;63444;48.148;11.542;2023-12-14T13:34:13;4.50;;;1.90;;
45011;SDS011;63444;48.148;11.542;2023-12-14T13:36:38;2.93;;;1.73;;
45011;SDS011;63444;48.148;11.542;2023-12-14T13:39:04;2.00;;;1.80;;
45011;SDS011;63444;48.148;11.542;2023-12-14T13:41:31;3.80;;;1.87;;
45011;SDS011;63444;48.148;11.542;2023-12-14T13:43:59;2.60;;;1.90;;
45011;SDS011;63444;48.148;11.542;2023-12-14T13:46:26;4.53;;;1.97;;
45011;SDS011;63444;48.148;11.542;2023-12-14T13:48:53;3.33;;;2.00;;
45011;SDS011;63444;48.148;11.542;2023-12-14T13:51:21;1.93;;;1.83;;
45011;SDS011;63444;48.148;11.542;2023-12-14T13:53:46;2.50;;;2.10;;
45011;SDS011;63444;48.148;11.542;2023-12-14T13:56:13;3.47;;;2.27;;
45011;SDS011;63444;48.148;11.542;2023-12-14T13:58:39;3.70;;;2.80;;
45011;SDS011;63444;48.148;11.542;2023-12-14T14:01:06;2.30;;;2.10;;
45011;SDS011;63444;48.148;11.542;2023-12-14T14:03:33;2.77;;;2.13;;
45011;SDS011;63444;48.148;11.542;2023-12-14T14:06:21;2.80;;;2.10;;
45011;SDS011;63444;48.148;11.542;2023-12-14T14:08:48;2.57;;;2.17;;
45011;SDS011;63444;48.148;11.542;2023-12-14T14:11:14;3.57;;;2.10;;
45011;SDS011;63444;48.148;11.542;2023-12-14T14:13:41;3.43;;;2.10;;
45011;SDS011;63444;48.148;11.542;2023-12-14T14:16:06;2.30;;;2.10;;
45011;SDS011;63444;48.148;11.542;2023-12-14T14:18:33;2.13;;;1.60;;
45011;SDS011;63444;48.148;11.542;2023-12-14T14:21:00;2.37;;;2.03;;
45011;SDS011;63444;48.148;11.542;2023-12-14T14:23:26;3.83;;;2.00;;
45011;SDS011;63444;48.148;11.542;2023-12-14T14:25:51;3.90;;;2.33;;
45011;SDS011;63444;48.148;11.542;2023-12-14T14:28:37;3.03;;;2.17;;
45011;SDS011;63444;48.148;11.542;2023-12-14T14:31:03;3.20;;;2.10;;
45011;SDS011;63444;48.148;11.542;2023-12-14T14:33:32;2.63;;;1.90;;
45011;SDS011;63444;48.148;11.542;2023-12-14T14:35:58;2.67;;;2.03;;
45011;SDS011;63444;48.148;11.542;2023-12-14T14:38:24;2.93;;;1.90;;
45011;SDS011;63444;48.148;11.542;2023-12-14T14:40:49;2.73;;;2.13;;
45011;SDS011;63444;48.148;11.542;2023-12-14T14:43:15;2.47;;;2.27;;
45011;SDS011;63444;48.148;11.542;2023-12-14T14:45:41;2.70;;;1.90;;
45011;SDS011;63444;48.148;11.542;2023-12-14T14:48:07;3.03;;;2.33;;
45011;SDS011;63444;48.148;11.542;2023-12-14T14:50:33;4.73;;;2.50;;
45011;SDS011;63444;48.148;11.542;2023-12-14T14:52:59;3.23;;;1.97;;
45011;SDS011;63444;48.148;11.542;2023-12-14T14:55:28;2.60;;;2.40;;
45011;SDS011;63444;48.148;11.542;2023-12-14T14:57:54;3.63;;;2.60;;
45011;SDS011;63444;48.148;11.542;2023-12-14T15:00:20;4.37;;;2.50;;
45011;SDS011;63444;48.148;11.542;2023-12-14T15:02:46;3.33;;;2.60;;
45011;SDS011;63444;48.148;11.542;2023-12-14T15:05:12;6.43;;;2.63;;
45011;SDS011;63444;48.148;11.542;2023-12-14T15:07:38;2.47;;;2.27;;
45011;SDS011;63444;48.148;11.542;2023-12-14T15:10:06;6.97;;;2.97;;
45011;SDS011;63444;48.148;11.542;2023-12-14T15:12:46;7.33;;;2.87;;
45011;SDS011;63444;48.148;11.542;2023-12-14T15:15:16;2.67;;;2.30;;
45011;SDS011;63444;48.148;11.542;2023-12-14T15:17:43;4.73;;;2.43;;
45011;SDS011;63444;48.148;11.542;2023-12-14T15:20:10;3.23;;;2.33;;
45011;SDS011;63444;48.148;11.542;2023-12-14T15:22:39;3.03;;;2.43;;
45011;SDS011;63444;48.148;11.542;2023-12-14T15:25:07;3.10;;;2.50;;
45011;SDS011;63444;48.148;11.542;2023-12-14T15:27:36;5.03;;;2.47;;
45011;SDS011;63444;48.148;11.542;2023-12-14T15:30:03;2.43;;;2.23;;
45011;SDS011;63444;48.148;11.542;2023-12-14T15:32:31;2.67;;;2.43;;
45011;SDS011;63444;48.148;11.542;2023-12-14T15:34:59;3.17;;;2.30;;
45011;SDS011;63444;48.148;11.542;2023-12-14T15:37:24;2.90;;;2.60;;
45011;SDS011;63444;48.148;11.542;2023-12-14T15:39:50;3.00;;;2.70;;
45011;SDS011;63444;48.148;11.542;2023-12-14T15:42:18;3.43;;;2.60;;
45011;SDS011;63444;48.148;11.542;2023-12-14T15:44:46;2.80;;;2.50;;
45011;SDS011;63444;48.148;11.542;2023-12-14T15:47:12;3.37;;;2.80;;
45011;SDS011;63444;48.148;11.542;2023-12-14T15:49:41;6.03;;;2.93;;
45011;SDS011;63444;48.148;11.542;2023-12-14T15:52:08;3.13;;;2.83;;
45011;SDS011;63444;48.148;11.542;2023-12-14T15:54:34;3.70;;;2.77;;
45011;SDS011;63444;48.148;11.542;2023-12-14T15:57:00;4.10;;;3.20;;
45011;SDS011;63444;48.148;11.542;2023-12-14T15:59:25;3.83;;;2.73;;
45011;SDS011;63444;48.148;11.542;2023-12-14T16:01:52;3.90;;;2.90;;
45011;SDS011;63444;48.148;11.542;2023-12-14T16:04:17;4.27;;;3.00;;
45011;SDS011;63444;48.148;11.542;2023-12-14T16:06:43;4.93;;;2.93;;
45011;SDS011;63444;48.148;11.542;2023-12-14T16:09:09;3.30;;;2.70;;
45011;SDS011;63444;48.148;11.542;2023-12-14T16:11:34;3.47;;;2.77;;
45011;SDS011;63444;48.148;11.542;2023-12-14T16:14:00;3.10;;;2.70;;
45011;SDS011;63444;48.148;11.542;2023-12-14T16:16:26;3.13;;;2.57;;
45011;SDS011;63444;48.148;11.542;2023-12-14T16:18:51;4.20;;;3.03;;
45011;SDS011;63444;48.148;11.542;2023-12-14T16:21:17;5.50;;;3.03;;
45011;SDS011;63444;48.148;11.542;2023-12-14T16:23:43;3.27;;;2.50;;
45011;SDS011;63444;48.148;11.542;2023-12-14T16:26:12;2.70;;;2.50;;
45011;SDS011;63444;48.148;11.542;2023-12-14T16:28:37;3.77;;;2.70;;
45011;SDS011;63444;48.148;11.542;2023-12-14T16:31:04;3.63;;;2.63;;
45011;SDS011;63444;48.148;11.542;2023-12-14T16:33:31;3.57;;;2.60;;
45011;SDS011;63444;48.148;11.542;2023-12-14T16:35:57;4.10;;;2.63;;
45011;SDS011;63444;48.148;11.542;2023-12-14T16:38:22;4.93;;;2.67;;
45011;SDS011;63444;48.148;11.542;2023-12-14T16:40:48;3.80;;;2.90;;
45011;SDS011;63444;48.148;11.542;2023-12-14T16:43:14;3.70;;;2.70;;
45011;SDS011;63444;48.148;11.542;2023-12-14T16:45:53;5.27;;;2.53;;
45011;SDS011;63444;48.148;11.542;2023-12-14T16:54:26;4.87;;;2.77;;
45011;SDS011;63444;48.148;11.542;2023-12-14T16:56:52;3.43;;;2.60;;
45011;SDS011;63444;48.148;11.542;2023-12-14T16:59:18;4.07;;;2.60;;
45011;SDS011;63444;48.148;11.542;2023-12-14T17:01:45;3.30;;;2.77;;
45011;SDS011;63444;48.148;11.542;2023-12-14T17:04:10;4.33;;;2.47;;
45011;SDS011;63444;48.148;11.542;2023-12-14T17:06:39;3.10;;;2.60;;
45011;SDS011;63444;48.148;11.542;2023-12-14T17:09:05;3.33;;;2.57;;
45011;SDS011;63444;48.148;11.542;2023-12-14T17:11:40;5.63;;;2.80;;
45011;SDS011;63444;48.148;11.542;2023-12-14T17:14:08;3.00;;;2.20;;
45011;SDS011;63444;48.148;11.542;2023-12-14T17:16:34;4.03;;;2.93;;
45011;SDS011;63444;48.148;11.542;2023-12-14T17:19:00;4.10;;;2.80;;
45011;SDS011;63444;48.148;11.542;2023-12-14T17:21:26;3.90;;;2.47;;
45011;SDS011;63444;48.148;11.542;2023-12-14T17:23:54;3.43;;;2.90;;
45011;SDS011;63444;48.148;11.542;2023-12-14T17:26:21;3.07;;;2.50;;
45011;SDS011;63444;48.148;11.542;2023-12-14T17:28:50;5.47;;;2.83;;
45011;SDS011;63444;48.148;11.542;2023-12-14T17:31:18;3.93;;;3.00;;
45011;SDS011;63444;48.148;11.542;2023-12-14T17:33:45;6.00;;;3.00;;
45011;SDS011;63444;48.148;11.542;2023-12-14T17:36:11;6.97;;;2.63;;
45011;SDS011;63444;48.148;11.542;2023-12-14T17:38:37;5.90;;;3.07;;
45011;SDS011;63444;48.148;11.542;2023-12-14T17:41:03;3.20;;;2.87;;
45011;SDS011;63444;48.148;11.542;2023-12-14T17:43:35;2.83;;;2.33;;
45011;SDS011;63444;48.148;11.542;2023-12-14T17:46:01;7.73;;;3.73;;
45011;SDS011;63444;48.148;11.542;2023-12-14T17:48:30;6.70;;;2.90;;
45011;SDS011;63444;48.148;11.542;2023-12-14T17:50:57;3.10;;;2.60;;
45011;SDS011;63444;48.148;11.542;2023-12-14T17:53:23;3.50;;;2.80;;
45011;SDS011;63444;48.148;11.542;2023-12-14T17:55:49;3.00;;;2.67;;
45011;SDS011;63444;48.148;11.542;2023-12-14T17:58:15;2.67;;;2.47;;
45011;SDS011;63444;48.148;11.542;2023-12-14T18:00:41;3.87;;;2.87;;
45011;SDS011;63444;48.148;11.542;2023-12-14T18:03:06;4.07;;;2.73;;
45011;SDS011;63444;48.148;11.542;2023-12-14T18:05:32;2.87;;;2.50;;
45011;SDS011;63444;48.148;11.542;2023-12-14T18:07:58;5.10;;;2.67;;
45011;SDS011;63444;48.148;11.542;2023-12-14T18:10:24;3.67;;;3.03;;
45011;SDS011;63444;48.148;11.542;2023-12-14T18:12:50;3.53;;;2.83;;
45011;SDS011;63444;48.148;11.542;2023-12-14T18:15:17;2.97;;;2.60;;
45011;SDS011;63444;48.148;11.542;2023-12-14T18:17:43;3.43;;;2.73;;
45011;SDS011;63444;48.148;11.542;2023-12-14T18:20:09;4.60;;;3.00;;
45011;SDS011;63444;48.148;11.542;2023-12-14T18:22:35;4.27;;;3.17;;
45011;SDS011;63444;48.148;11.542;2023-12-14T18:25:01;3.47;;;3.17;;
45011;SDS011;63444;48.148;11.542;2023-12-14T18:27:27;4.70;;;3.40;;
45011;SDS011;63444;48.148;11.542;2023-12-14T18:29:53;4.73;;;3.30;;
45011;SDS011;63444;48.148;11.542;2023-12-14T18:32:18;3.80;;;3.10;;
45011;SDS011;63444;48.148;11.542;2023-12-14T18:34:44;3.97;;;3.57;;
45011;SDS011;63444;48.148;11.542;2023-12-14T18:37:09;4.10;;;3.70;;
45011;SDS011;63444;48.148;11.542;2023-12-14T18:39:39;4.13;;;3.43;;
45011;SDS011;63444;48.148;11.542;2023-12-14T18:42:08;3.70;;;3.37;;
45011;SDS011;63444;48.148;11.542;2023-12-14T18:44:34;5.93;;;3.50;;
45011;SDS011;63444;48.148;11.542;2023-12-14T18:47:01;4.27;;;3.60;;
45011;SDS011;63444;48.148;11.542;2023-12-14T18:49:26;5.07;;;3.50;;
45011;SDS011;63444;48.148;11.542;2023-12-14T18:51:53;4.00;;;3.60;;
45011;SDS011;63444;48.148;11.542;2023-12-14T18:54:19;4.23;;;3.20;;
45011;SDS011;63444;48.148;11.542;2023-12-14T18:56:44;4.23;;;3.13;;
45011;SDS011;63444;48.148;11.542;2023-12-14T18:59:10;3.47;;;3.17;;
45011;SDS011;63444;48.148;11.542;2023-12-14T19:01:36;3.67;;;3.33;;
45011;SDS011;63444;48.148;11.542;2023-12-14T19:04:02;4.77;;;3.40;;
45011;SDS011;63444;48.148;11.542;2023-12-14T19:06:28;5.00;;;3.73;;
45011;SDS011;63444;48.148;11.542;2023-12-14T19:08:54;5.43;;;3.70;;
45011;SDS011;63444;48.148;11.542;2023-12-14T19:11:21;3.97;;;3.60;;
45011;SDS011;63444;48.148;11.542;2023-12-14T19:13:46;3.90;;;3.50;;
45011;SDS011;63444;48.148;11.542;2023-12-14T19:16:21;3.30;;;3.07;;
45011;SDS011;63444;48.148;11.542;2023-12-14T19:18:48;3.80;;;3.47;;
45011;SDS011;63444;48.148;11.542;2023-12-14T19:21:17;4.10;;;3.47;;
45011;SDS011;63444;48.148;11.542;2023-12-14T19:23:44;6.67;;;4.00;;
45011;SDS011;63444;48.148;11.542;2023-12-14T19:26:15;4.70;;;3.67;;
45011;SDS011;63444;48.148;11.542;2023-12-14T19:28:51;4.67;;;4.27;;
45011;SDS011;63444;48.148;11.542;2023-12-14T19:31:18;6.37;;;4.30;;
45011;SDS011;63444;48.148;11.542;2023-12-14T19:33:44;4.67;;;4.20;;